createdAt,value
2022-10-23T00:00:17.285Z,7.90
2022-10-23T00:03:42.751Z,9.00
2022-10-23T00:07:07.994Z,5.22
2022-10-23T00:10:31.995Z,4.30
2022-10-23T00:13:57.158Z,5.82
2022-10-23T00:17:23.146Z,6.00
2022-10-23T00:20:48.403Z,5.68
2022-10-23T00:24:12.193Z,8.18
2022-10-23T00:27:35.967Z,6.45
2022-10-23T00:30:59.335Z,6.65
2022-10-23T00:34:24.539Z,5.85
2022-10-23T00:37:49.351Z,5.82
2022-10-23T00:41:18.448Z,5.75
2022-10-23T00:45:17.654Z,4.68
2022-10-23T00:52:11.526Z,5.00
2022-10-23T00:55:39.337Z,7.55
2022-10-23T00:59:03.110Z,7.38
2022-10-23T01:02:26.467Z,5.43
2022-10-23T01:05:55.177Z,6.78
2022-10-23T01:09:25.922Z,7.47
2022-10-23T01:12:57.170Z,4.00
2022-10-23T01:16:26.374Z,6.72
2022-10-23T01:20:03.570Z,7.32
2022-10-23T01:23:55.101Z,6.65
2022-10-23T01:27:25.225Z,4.75
2022-10-23T01:30:50.953Z,4.97
2022-10-23T01:34:18.022Z,7.20
2022-10-23T01:37:43.530Z,6.57
2022-10-23T01:41:13.445Z,4.43
2022-10-23T01:44:42.343Z,8.63
2022-10-23T01:48:10.032Z,7.20
2022-10-23T01:51:36.344Z,6.22
2022-10-23T01:55:04.229Z,7.45
2022-10-23T01:58:31.186Z,8.90
2022-10-23T02:02:00.793Z,5.88
2022-10-23T02:05:27.441Z,11.70
2022-10-23T02:08:52.345Z,10.85
2022-10-23T02:12:33.041Z,11.40
2022-10-23T02:16:10.217Z,11.40
2022-10-23T02:19:46.178Z,7.47
2022-10-23T02:23:23.203Z,13.70
2022-10-23T02:26:53.508Z,14.20
2022-10-23T02:30:18.508Z,13.45
2022-10-23T02:33:43.211Z,10.38
2022-10-23T02:37:08.242Z,7.15
2022-10-23T02:40:38.851Z,8.27
2022-10-23T02:44:19.048Z,11.45
2022-10-23T02:47:54.881Z,8.40
2022-10-23T02:51:23.982Z,7.25
2022-10-23T02:55:09.678Z,12.20
2022-10-23T02:58:41.138Z,9.80
2022-10-23T03:02:08.867Z,9.13
2022-10-23T03:05:35.221Z,11.77
2022-10-23T03:09:02.214Z,8.38
2022-10-23T03:12:28.535Z,7.47
2022-10-23T03:15:52.518Z,8.95
2022-10-23T03:19:16.515Z,7.80
2022-10-23T03:22:40.672Z,7.28
2022-10-23T03:26:03.952Z,8.02
2022-10-23T03:29:28.243Z,8.40
2022-10-23T03:32:52.231Z,10.90
2022-10-23T03:36:17.228Z,6.53
2022-10-23T03:39:40.809Z,8.63
2022-10-23T03:43:05.074Z,8.68
2022-10-23T03:46:30.011Z,9.77
2022-10-23T03:49:53.376Z,13.15
2022-10-23T03:53:16.950Z,9.85
2022-10-23T03:56:40.215Z,10.13
2022-10-23T04:00:07.274Z,9.73
2022-10-23T04:03:32.079Z,9.85
2022-10-23T04:06:54.929Z,16.92
2022-10-23T04:10:18.916Z,30.02
2022-10-23T04:13:42.277Z,21.52
2022-10-23T04:17:05.957Z,26.92
2022-10-23T04:20:30.872Z,29.75
2022-10-23T04:23:54.745Z,19.33
2022-10-23T04:27:19.955Z,12.80
2022-10-23T04:30:43.015Z,17.60
2022-10-23T04:37:36.510Z,31.97
2022-10-23T04:40:59.676Z,36.17
2022-10-23T04:44:22.838Z,44.58
2022-10-23T04:47:45.799Z,34.35
2022-10-23T04:51:10.093Z,25.20
2022-10-23T04:54:40.322Z,22.35
2022-10-23T04:58:04.100Z,16.60
2022-10-23T05:01:28.644Z,16.02
2022-10-23T05:04:52.062Z,11.48
2022-10-23T05:08:18.062Z,12.38
2022-10-23T05:11:43.211Z,15.82
2022-10-23T05:15:08.329Z,17.77
2022-10-23T05:18:35.378Z,15.63
2022-10-23T05:22:00.274Z,13.40
2022-10-23T05:25:23.643Z,12.88
2022-10-23T05:28:48.243Z,18.98
2022-10-23T05:32:14.177Z,16.42
2022-10-23T05:35:43.274Z,18.17
2022-10-23T05:42:32.057Z,28.73
2022-10-23T05:46:00.751Z,26.73
2022-10-23T05:49:26.480Z,25.65
2022-10-23T05:52:50.868Z,31.88
2022-10-23T05:56:14.750Z,23.60
2022-10-23T05:59:37.915Z,15.75
2022-10-23T06:03:03.638Z,20.50
2022-10-23T06:06:27.125Z,24.02
2022-10-23T06:09:50.275Z,24.20
2022-10-23T06:13:14.468Z,22.50
2022-10-23T06:16:40.497Z,19.25
2022-10-23T06:20:06.831Z,18.80
2022-10-23T06:23:33.486Z,19.30
2022-10-23T06:26:57.468Z,20.20
2022-10-23T06:30:21.439Z,68.03
2022-10-23T06:33:45.119Z,43.72
2022-10-23T06:42:02.894Z,20.83
2022-10-23T06:45:26.260Z,36.45
2022-10-23T06:48:49.950Z,35.83
2022-10-23T06:52:18.454Z,31.60
2022-10-23T11:32:23.457Z,23.77
2022-10-23T11:36:24.571Z,23.17
